createdAt,value
2023-05-16T00:01:02.808Z,80.19
2023-05-16T00:03:31.178Z,79.94
2023-05-16T00:05:59.580Z,80.03
2023-05-16T00:08:27.657Z,79.95
2023-05-16T00:10:55.641Z,79.83
2023-05-16T00:13:25.943Z,79.81
2023-05-16T00:15:55.604Z,79.64
2023-05-16T00:18:23.631Z,79.52
2023-05-16T00:20:52.602Z,79.21
2023-05-16T00:23:20.775Z,79.30
2023-05-16T00:25:49.465Z,79.02
2023-05-16T00:28:17.490Z,78.79
2023-05-16T00:30:45.519Z,78.63
2023-05-16T00:33:13.580Z,78.47
2023-05-16T00:35:41.955Z,78.70
2023-05-16T00:38:10.624Z,78.57
2023-05-16T00:40:39.447Z,78.61
2023-05-16T00:43:07.704Z,78.19
2023-05-16T00:45:35.882Z,78.23
2023-05-16T00:48:04.404Z,77.97
2023-05-16T00:50:34.357Z,78.18
2023-05-16T00:53:02.551Z,78.41
2023-05-16T00:55:31.037Z,78.56
2023-05-16T00:58:02.689Z,79.02
2023-05-16T01:00:31.624Z,79.10
2023-05-16T01:03:00.744Z,79.35
2023-05-16T01:05:29.878Z,79.71
2023-05-16T01:07:58.067Z,79.56
2023-05-16T01:10:36.876Z,79.71
2023-05-16T01:13:24.707Z,79.99
2023-05-16T01:16:31.747Z,80.13
2023-05-16T01:19:25.013Z,79.84
2023-05-16T01:22:05.754Z,80.10
2023-05-16T01:24:44.131Z,80.28
2023-05-16T01:27:13.532Z,80.49
2023-05-16T01:29:41.476Z,80.21
2023-05-16T01:32:09.620Z,80.24
2023-05-16T01:34:37.850Z,80.43
2023-05-16T01:37:16.998Z,80.46
2023-05-16T01:39:52.431Z,80.24
2023-05-16T01:42:24.897Z,80.49
2023-05-16T01:45:18.783Z,80.88
2023-05-16T01:47:53.515Z,81.08
2023-05-16T01:50:25.806Z,81.12
2023-05-16T01:52:55.532Z,81.40
2023-05-16T01:55:46.078Z,81.58
2023-05-16T01:58:16.370Z,81.37
2023-05-16T02:00:45.105Z,81.53
2023-05-16T02:03:13.531Z,81.86
2023-05-16T02:05:41.849Z,81.86
2023-05-16T02:08:14.120Z,81.60
2023-05-16T02:10:43.117Z,81.72
2023-05-16T02:13:11.714Z,81.94
2023-05-16T02:15:39.648Z,82.19
2023-05-16T02:18:07.880Z,82.21
2023-05-16T02:20:36.028Z,81.93
2023-05-16T02:23:04.193Z,81.90
2023-05-16T02:25:33.538Z,81.89
2023-05-16T02:28:01.453Z,82.05
2023-05-16T02:30:29.564Z,81.87
2023-05-16T02:32:57.537Z,81.49
2023-05-16T02:35:26.229Z,81.78
2023-05-16T02:37:54.571Z,81.42
2023-05-16T02:40:22.603Z,81.81
2023-05-16T02:42:50.813Z,81.94
2023-05-16T02:45:18.877Z,82.28
2023-05-16T02:47:47.097Z,82.44
2023-05-16T02:50:15.126Z,82.43
2023-05-16T02:52:43.201Z,82.66
2023-05-16T02:55:21.828Z,82.66
2023-05-16T02:57:51.134Z,82.62
2023-05-16T03:00:19.843Z,82.78
2023-05-16T03:02:49.488Z,82.73
2023-05-16T03:05:18.001Z,82.92
2023-05-16T03:07:46.888Z,83.05
2023-05-16T03:10:14.965Z,82.97
2023-05-16T03:12:43.003Z,83.10
2023-05-16T03:15:11.161Z,83.19
2023-05-16T03:17:39.413Z,82.80
2023-05-16T03:20:09.546Z,82.69
2023-05-16T03:22:37.502Z,82.96
2023-05-16T03:25:06.174Z,82.41
2023-05-16T03:27:34.122Z,82.87
2023-05-16T03:30:02.563Z,82.84
2023-05-16T03:32:30.933Z,82.84
2023-05-16T03:34:59.154Z,82.82
2023-05-16T03:37:28.021Z,82.66
2023-05-16T03:39:56.217Z,82.48
2023-05-16T03:42:24.255Z,82.85
2023-05-16T03:44:52.255Z,83.22
2023-05-16T03:47:20.430Z,82.67
2023-05-16T03:49:48.378Z,83.07
2023-05-16T03:52:16.393Z,82.68
2023-05-16T03:54:44.748Z,82.63
2023-05-16T03:57:12.767Z,82.85
2023-05-16T03:59:40.993Z,82.81
2023-05-16T04:02:09.315Z,82.58
2023-05-16T04:04:37.445Z,83.13
2023-05-16T04:07:06.649Z,82.57
2023-05-16T04:09:34.610Z,82.88
2023-05-16T04:12:03.406Z,82.49
2023-05-16T04:14:32.106Z,82.43
2023-05-16T04:17:00.420Z,82.56
2023-05-16T04:19:28.636Z,82.62
2023-05-16T04:21:56.608Z,82.60
2023-05-16T04:24:26.735Z,82.69
2023-05-16T04:26:55.725Z,82.32
2023-05-16T04:29:23.910Z,82.56
2023-05-16T04:31:52.252Z,82.71
2023-05-16T04:34:20.192Z,82.69
2023-05-16T04:36:48.128Z,82.68
2023-05-16T04:39:16.297Z,82.84
2023-05-16T04:41:44.235Z,83.07
2023-05-16T04:44:12.269Z,82.94
2023-05-16T04:46:40.548Z,82.76
2023-05-16T04:49:08.753Z,82.78
2023-05-16T04:51:37.053Z,82.34
2023-05-16T04:54:05.109Z,82.42
2023-05-16T04:56:33.101Z,82.49
2023-05-16T04:59:01.155Z,82.54
2023-05-16T05:01:29.303Z,82.55
2023-05-16T05:03:57.413Z,82.43
2023-05-16T05:06:25.788Z,82.53
2023-05-16T05:08:54.886Z,82.35
2023-05-16T05:11:23.362Z,82.49
2023-05-16T05:13:53.128Z,82.27
2023-05-16T05:16:21.334Z,81.85
2023-05-16T05:18:49.817Z,81.78
2023-05-16T05:21:18.534Z,82.16
2023-05-16T05:23:47.107Z,81.99
2023-05-16T05:26:15.405Z,81.84
2023-05-16T05:28:47.948Z,81.94
2023-05-16T05:31:22.180Z,82.09
2023-05-16T05:33:50.552Z,81.83
2023-05-16T05:36:18.624Z,82.51
2023-05-16T05:38:46.656Z,82.62
2023-05-16T05:41:14.760Z,81.81
2023-05-16T05:43:42.894Z,80.10
2023-05-16T05:46:10.975Z,78.36
2023-05-16T05:48:39.115Z,77.21
2023-05-16T05:51:07.064Z,76.68
2023-05-16T05:53:35.120Z,74.56
2023-05-16T05:56:03.123Z,73.94
2023-05-16T05:58:31.271Z,70.91
2023-05-16T06:00:59.302Z,69.23
2023-05-16T06:03:27.435Z,67.34
2023-05-16T06:05:55.724Z,64.83
2023-05-16T06:08:23.957Z,62.44
2023-05-16T06:10:52.751Z,60.63
2023-05-16T06:13:20.825Z,59.40
2023-05-16T06:15:53.506Z,57.91
2023-05-16T06:18:22.109Z,57.35
2023-05-16T06:20:50.766Z,56.86
2023-05-16T06:23:21.053Z,56.63
2023-05-16T06:25:49.434Z,56.99
2023-05-16T06:28:17.323Z,57.14
2023-05-16T06:30:45.457Z,57.31
2023-05-16T06:33:15.774Z,57.20
2023-05-16T06:35:43.808Z,57.40
2023-05-16T06:38:11.898Z,58.10
2023-05-16T06:40:39.866Z,58.61
2023-05-16T06:43:08.327Z,59.16
2023-05-16T06:45:36.485Z,59.55
2023-05-16T06:48:05.331Z,60.58
2023-05-16T06:50:35.417Z,61.29
2023-05-16T06:53:05.219Z,61.71
2023-05-16T06:55:36.010Z,61.60
2023-05-16T06:58:04.475Z,62.46
2023-05-16T07:00:33.604Z,62.12
2023-05-16T07:03:02.066Z,60.67
2023-05-16T07:05:30.244Z,60.76
2023-05-16T07:07:58.362Z,61.28
2023-05-16T07:10:27.389Z,61.89
2023-05-16T07:12:55.876Z,62.67
2023-05-16T07:15:24.010Z,62.32
2023-05-16T07:17:52.630Z,62.09
2023-05-16T07:20:21.282Z,61.76
2023-05-16T07:22:49.599Z,60.91
2023-05-16T07:25:17.611Z,59.89
2023-05-16T07:27:45.592Z,59.53
2023-05-16T07:30:14.523Z,59.51
2023-05-16T07:32:43.674Z,59.15
2023-05-16T07:35:13.813Z,59.50
2023-05-16T07:37:43.640Z,57.64
2023-05-16T07:40:12.449Z,57.58
2023-05-16T07:42:40.517Z,57.27
2023-05-16T07:45:09.364Z,56.95
2023-05-16T07:47:37.669Z,57.82
2023-05-16T07:50:06.561Z,57.29
2023-05-16T07:52:34.951Z,57.11
2023-05-16T07:55:03.952Z,57.09
2023-05-16T07:57:32.415Z,57.24
2023-05-16T08:00:00.713Z,56.17
2023-05-16T08:02:31.264Z,57.67
2023-05-16T08:04:59.818Z,57.23
2023-05-16T08:07:27.993Z,57.18
2023-05-16T08:09:56.114Z,57.64
2023-05-16T08:12:24.613Z,58.18
2023-05-16T08:14:53.081Z,57.36
2023-05-16T08:17:21.297Z,57.60
2023-05-16T08:19:50.133Z,57.70
2023-05-16T08:22:18.523Z,57.28
2023-05-16T08:24:46.695Z,58.15
2023-05-16T08:27:14.677Z,56.96
2023-05-16T08:29:42.741Z,56.67
2023-05-16T08:32:13.677Z,57.10
2023-05-16T08:34:42.161Z,56.86
2023-05-16T08:37:10.888Z,56.33
2023-05-16T08:39:40.247Z,57.16
2023-05-16T08:42:08.934Z,57.50
2023-05-16T08:44:36.955Z,57.67
2023-05-16T08:47:14.057Z,57.57
2023-05-16T08:49:44.263Z,58.57
2023-05-16T08:52:14.364Z,58.47
2023-05-16T08:54:43.382Z,58.10
2023-05-16T08:57:11.908Z,58.42
2023-05-16T08:59:41.157Z,58.21
2023-05-16T09:02:09.731Z,58.31
2023-05-16T09:04:39.095Z,59.27
2023-05-16T09:07:07.240Z,59.98
2023-05-16T09:09:35.960Z,60.51
2023-05-16T09:12:04.164Z,59.91
2023-05-16T09:14:32.145Z,60.01
2023-05-16T09:17:10.232Z,60.79
2023-05-16T09:19:42.701Z,61.25
2023-05-16T09:22:15.283Z,61.41
2023-05-16T09:24:45.480Z,60.85
2023-05-16T09:27:15.246Z,60.82
2023-05-16T09:29:47.866Z,61.75
2023-05-16T09:32:17.781Z,61.51
2023-05-16T09:34:51.514Z,61.64
2023-05-16T09:37:20.683Z,61.73
2023-05-16T09:39:51.215Z,61.49
2023-05-16T09:42:20.819Z,61.19
2023-05-16T09:44:54.996Z,59.90
2023-05-16T09:47:23.209Z,59.40
2023-05-16T09:49:54.704Z,59.40
2023-05-16T09:52:23.022Z,59.63
2023-05-16T09:54:51.138Z,58.21
2023-05-16T09:57:20.268Z,57.48
2023-05-16T09:59:48.582Z,57.14
2023-05-16T10:02:17.435Z,58.04
2023-05-16T10:04:46.895Z,58.31
2023-05-16T10:07:16.335Z,57.66
2023-05-16T10:09:46.300Z,57.31
2023-05-16T10:12:16.120Z,57.02
2023-05-16T10:14:46.879Z,57.29
2023-05-16T10:17:15.906Z,56.84
2023-05-16T10:19:45.552Z,57.07
2023-05-16T10:22:15.010Z,57.23
2023-05-16T10:24:59.233Z,56.22
2023-05-16T10:27:28.263Z,54.16
2023-05-16T10:29:58.365Z,54.89
2023-05-16T10:32:28.182Z,53.38
2023-05-16T10:34:56.955Z,52.96
2023-05-16T10:37:25.977Z,53.06
2023-05-16T10:39:54.998Z,50.64
2023-05-16T10:42:23.377Z,51.65
2023-05-16T10:45:04.826Z,51.99
2023-05-16T10:47:33.986Z,51.08
2023-05-16T10:50:02.380Z,50.54
2023-05-16T10:52:35.517Z,51.11
2023-05-16T10:55:04.954Z,50.38
2023-05-16T10:57:33.707Z,50.18
2023-05-16T11:00:04.256Z,51.51
2023-05-16T11:02:34.816Z,51.85
2023-05-16T11:05:03.259Z,51.20
2023-05-16T11:07:39.029Z,52.35
2023-05-16T11:10:15.896Z,52.67
2023-05-16T11:12:50.769Z,53.78
2023-05-16T11:15:19.466Z,54.52
2023-05-16T11:17:48.329Z,54.68
2023-05-16T11:20:45.917Z,55.12
2023-05-16T11:23:22.989Z,56.16
2023-05-16T11:25:55.768Z,56.78
2023-05-16T11:28:28.084Z,57.41
2023-05-16T11:31:00.194Z,57.47
2023-05-16T11:33:35.364Z,56.94
2023-05-16T11:36:15.079Z,57.48
2023-05-16T11:38:44.637Z,58.31
2023-05-16T11:41:15.705Z,58.04
2023-05-16T11:43:45.967Z,57.20
2023-05-16T11:46:16.657Z,56.20
2023-05-16T11:48:46.603Z,55.59
2023-05-16T11:51:19.086Z,54.22
2023-05-16T11:53:50.915Z,54.74
2023-05-16T11:56:21.776Z,54.53
2023-05-16T11:58:50.869Z,55.39
2023-05-16T12:01:19.345Z,55.02
2023-05-16T12:03:55.678Z,54.78
2023-05-16T12:06:24.011Z,55.16
2023-05-16T12:08:52.922Z,53.81
2023-05-16T12:11:23.664Z,54.26
2023-05-16T12:13:52.685Z,53.67
2023-05-16T12:16:20.906Z,53.97
2023-05-16T12:18:50.021Z,54.11
2023-05-16T12:21:18.183Z,53.90
2023-05-16T12:23:46.349Z,54.85
2023-05-16T12:26:14.781Z,55.98
2023-05-16T12:28:44.725Z,56.07
2023-05-16T12:33:55.705Z,54.90
2023-05-16T12:36:25.084Z,54.69
2023-05-16T12:38:53.803Z,54.52
2023-05-16T12:41:23.195Z,53.06
2023-05-16T12:43:51.569Z,51.87
2023-05-16T12:46:20.331Z,52.19
2023-05-16T12:48:48.521Z,53.20
2023-05-16T12:51:19.045Z,52.52
2023-05-16T12:54:05.799Z,52.51
2023-05-16T12:56:41.691Z,51.64
2023-05-16T12:59:09.790Z,51.90
2023-05-16T13:01:38.758Z,52.97
2023-05-16T13:04:07.199Z,52.90
2023-05-16T13:06:55.415Z,52.04
2023-05-16T13:09:24.708Z,52.98
2023-05-16T13:11:53.627Z,51.98
2023-05-16T13:14:22.126Z,52.35
2023-05-16T13:16:50.247Z,51.36
2023-05-16T13:19:18.481Z,49.90
2023-05-16T13:21:46.910Z,51.23
2023-05-16T13:24:15.204Z,50.57
2023-05-16T13:26:43.367Z,50.56
2023-05-16T13:29:12.457Z,50.51
2023-05-16T13:31:40.857Z,51.70
2023-05-16T13:34:09.058Z,52.22
2023-05-16T13:36:52.288Z,52.19
2023-05-16T13:39:22.762Z,50.97
2023-05-16T13:41:51.837Z,51.75
2023-05-16T13:44:20.333Z,51.60
2023-05-16T13:46:48.920Z,52.52
2023-05-16T13:49:17.087Z,52.74
2023-05-16T13:51:45.785Z,51.61
2023-05-16T13:54:13.718Z,51.33
2023-05-16T13:56:42.214Z,52.29
2023-05-16T13:59:14.243Z,52.08
2023-05-16T14:01:46.917Z,51.97
2023-05-16T14:04:15.135Z,51.73
2023-05-16T14:06:43.738Z,50.69
2023-05-16T14:09:13.326Z,51.35
2023-05-16T14:11:41.409Z,52.29
2023-05-16T14:14:09.594Z,51.34
2023-05-16T14:16:37.807Z,51.32
2023-05-16T14:19:06.517Z,50.38
2023-05-16T14:21:34.821Z,49.29
2023-05-16T14:24:02.897Z,48.96
2023-05-16T14:26:32.534Z,48.26
2023-05-16T14:29:00.890Z,48.95
2023-05-16T14:31:29.008Z,49.11
2023-05-16T14:33:57.234Z,46.88
2023-05-16T14:38:53.894Z,47.46
2023-05-16T14:41:22.702Z,48.34
2023-05-16T14:43:51.258Z,48.66
2023-05-16T14:46:19.913Z,48.07
2023-05-16T14:48:48.337Z,46.67
2023-05-16T14:51:17.043Z,47.39
2023-05-16T14:53:47.056Z,47.39
2023-05-16T14:56:16.238Z,47.77
2023-05-16T14:58:44.425Z,46.87
2023-05-16T15:01:12.698Z,48.05
2023-05-16T15:03:53.595Z,48.95
2023-05-16T15:06:24.715Z,49.02
2023-05-16T15:08:53.529Z,49.02
2023-05-16T15:11:21.919Z,48.59
2023-05-16T15:13:49.996Z,49.05
2023-05-16T15:16:18.369Z,49.45
2023-05-16T15:18:46.842Z,49.48
2023-05-16T15:21:14.963Z,49.38
2023-05-16T15:23:43.504Z,49.45
2023-05-16T15:26:11.825Z,49.26
2023-05-16T15:28:39.798Z,48.44
2023-05-16T15:31:07.849Z,48.33
2023-05-16T15:33:36.445Z,49.05
2023-05-16T15:36:05.135Z,48.87
2023-05-16T15:38:33.257Z,48.43
2023-05-16T15:41:16.484Z,48.67
2023-05-16T15:43:50.586Z,49.26
2023-05-16T15:46:18.686Z,49.69
2023-05-16T15:48:46.993Z,49.10
2023-05-16T15:51:16.294Z,49.77
2023-05-16T15:53:45.131Z,50.12
2023-05-16T15:56:13.482Z,49.76
2023-05-16T15:58:41.975Z,49.24
2023-05-16T16:01:10.034Z,49.05
2023-05-16T16:03:38.459Z,48.55
2023-05-16T16:06:06.733Z,49.22
2023-05-16T16:08:35.511Z,50.12
2023-05-16T16:11:03.937Z,50.86
2023-05-16T16:13:32.947Z,51.07
2023-05-16T16:16:01.569Z,51.77
2023-05-16T16:18:29.898Z,52.23
2023-05-16T16:20:57.979Z,51.79
2023-05-16T16:23:26.260Z,51.80
2023-05-16T16:25:54.621Z,52.34
2023-05-16T16:28:22.793Z,52.66
2023-05-16T16:30:51.436Z,53.15
2023-05-16T16:33:19.781Z,52.50
2023-05-16T16:35:48.187Z,52.65
2023-05-16T16:38:16.570Z,53.54
2023-05-16T16:40:44.633Z,52.18
2023-05-16T16:43:12.680Z,50.89
2023-05-16T16:45:40.862Z,51.46
2023-05-16T16:48:09.866Z,51.93
2023-05-16T16:50:38.077Z,52.26
2023-05-16T16:53:06.010Z,52.59
2023-05-16T16:55:34.348Z,52.40
2023-05-16T16:58:02.828Z,53.08
2023-05-16T17:00:31.728Z,54.33
2023-05-16T17:02:59.930Z,55.06
2023-05-16T17:05:28.379Z,54.46
2023-05-16T17:07:56.767Z,54.68
2023-05-16T17:10:24.800Z,55.38
2023-05-16T17:12:52.814Z,54.60
2023-05-16T17:15:21.482Z,54.29
2023-05-16T17:17:50.532Z,54.94
2023-05-16T17:20:18.757Z,54.83
2023-05-16T17:22:48.414Z,54.76
2023-05-16T17:25:16.840Z,53.87
2023-05-16T17:27:45.625Z,54.73
2023-05-16T17:30:13.876Z,55.34
2023-05-16T17:32:42.203Z,55.81
2023-05-16T17:35:10.740Z,55.73
2023-05-16T17:37:38.893Z,54.60
2023-05-16T17:40:10.293Z,54.71
2023-05-16T17:42:38.662Z,54.33
2023-05-16T17:45:08.165Z,54.86
2023-05-16T17:47:36.222Z,55.88
2023-05-16T17:50:05.574Z,56.72
2023-05-16T17:52:35.467Z,57.32
2023-05-16T17:55:04.948Z,56.68
2023-05-16T17:57:34.334Z,57.37
2023-05-16T18:00:05.748Z,57.86
2023-05-16T18:02:35.537Z,58.03
2023-05-16T18:05:07.069Z,58.27
2023-05-16T18:07:35.307Z,58.16
2023-05-16T18:10:04.264Z,57.13
2023-05-16T18:12:32.569Z,55.38
2023-05-16T18:15:00.804Z,56.12
2023-05-16T18:17:29.766Z,56.50
2023-05-16T18:19:58.724Z,56.97
2023-05-16T18:22:27.872Z,56.81
2023-05-16T18:24:56.017Z,57.72
2023-05-16T18:27:24.359Z,58.33
2023-05-16T18:29:52.507Z,59.20
2023-05-16T18:32:20.977Z,59.81
2023-05-16T18:34:49.361Z,56.31
2023-05-16T18:37:17.690Z,53.17
2023-05-16T18:39:46.223Z,52.20
2023-05-16T18:42:17.343Z,51.20
2023-05-16T18:44:46.580Z,51.18
2023-05-16T18:47:16.078Z,51.22
2023-05-16T18:49:44.347Z,50.76
2023-05-16T18:52:12.550Z,49.30
2023-05-16T18:54:40.709Z,48.42
2023-05-16T18:57:09.002Z,48.10
2023-05-16T18:59:37.771Z,48.27
2023-05-16T19:02:06.236Z,47.79
2023-05-16T19:04:34.731Z,48.06
2023-05-16T19:07:04.745Z,48.27
2023-05-16T19:09:33.937Z,48.32
2023-05-16T19:12:02.115Z,48.57
2023-05-16T19:14:30.283Z,48.49
2023-05-16T19:16:58.417Z,48.91
2023-05-16T19:19:26.722Z,49.28
2023-05-16T19:21:54.974Z,50.07
2023-05-16T19:24:23.160Z,50.59
2023-05-16T19:26:51.212Z,51.24
2023-05-16T19:29:21.423Z,51.83
2023-05-16T19:31:49.776Z,52.38
2023-05-16T19:34:20.710Z,53.07
2023-05-16T19:36:49.129Z,53.25
2023-05-16T19:39:17.189Z,53.68
2023-05-16T19:41:49.894Z,54.64
2023-05-16T19:44:20.565Z,55.20
2023-05-16T19:46:48.588Z,55.89
2023-05-16T19:49:19.531Z,56.63
2023-05-16T19:51:48.565Z,56.81
2023-05-16T19:54:16.739Z,57.16
2023-05-16T19:56:45.133Z,57.28
2023-05-16T19:59:13.172Z,57.93
2023-05-16T20:04:14.806Z,58.72
2023-05-16T20:06:45.397Z,58.35
2023-05-16T20:09:13.782Z,58.91
2023-05-16T20:11:41.830Z,59.43
2023-05-16T20:14:09.787Z,59.51
2023-05-16T20:16:38.548Z,59.62
2023-05-16T20:19:07.373Z,59.84
2023-05-16T20:21:35.876Z,59.73
2023-05-16T20:24:05.961Z,60.22
2023-05-16T20:26:34.208Z,60.82
2023-05-16T20:29:02.544Z,61.19
2023-05-16T20:31:30.632Z,62.04
2023-05-16T20:33:58.882Z,62.18
2023-05-16T20:36:27.162Z,62.41
2023-05-16T20:38:55.342Z,63.11
2023-05-16T20:41:23.446Z,63.06
2023-05-16T20:43:51.994Z,63.32
2023-05-16T20:46:20.168Z,63.19
2023-05-16T20:48:48.919Z,63.67
2023-05-16T20:51:17.135Z,63.85
2023-05-16T20:53:45.105Z,63.91
2023-05-16T20:56:13.414Z,63.92
2023-05-16T20:58:42.365Z,64.39
2023-05-16T21:01:10.625Z,64.69
2023-05-16T21:03:38.762Z,65.01
2023-05-16T21:06:06.944Z,64.88
2023-05-16T21:08:35.374Z,65.07
2023-05-16T21:11:03.965Z,65.27
2023-05-16T21:13:32.172Z,65.40
2023-05-16T21:16:00.496Z,65.18
2023-05-16T21:18:28.525Z,65.30
2023-05-16T21:20:56.818Z,65.51
2023-05-16T21:23:25.033Z,65.55
2023-05-16T21:25:53.045Z,65.96
2023-05-16T21:28:21.103Z,66.35
2023-05-16T21:30:49.246Z,66.65
2023-05-16T21:33:17.546Z,67.41
2023-05-16T21:35:45.929Z,67.55
2023-05-16T21:38:14.283Z,67.77
2023-05-16T21:40:42.663Z,67.81
2023-05-16T21:43:10.836Z,68.03
2023-05-16T21:45:40.398Z,68.13
2023-05-16T21:48:09.051Z,68.27
2023-05-16T21:50:37.281Z,69.03
2023-05-16T21:53:05.713Z,69.17
2023-05-16T21:55:33.859Z,69.05
2023-05-16T21:58:02.348Z,69.65
2023-05-16T22:00:30.617Z,70.19
2023-05-16T22:02:58.938Z,70.73
2023-05-16T22:05:27.868Z,70.64
2023-05-16T22:07:56.169Z,70.80
2023-05-16T22:10:24.368Z,71.13
2023-05-16T22:12:52.717Z,71.33
2023-05-16T22:15:20.785Z,71.65
2023-05-16T22:17:49.229Z,71.74
2023-05-16T22:20:17.459Z,72.41
2023-05-16T22:22:45.768Z,72.42
2023-05-16T22:25:13.792Z,72.21
2023-05-16T22:27:41.894Z,72.23
2023-05-16T22:30:10.240Z,72.11
2023-05-16T22:32:38.338Z,72.00
2023-05-16T22:35:07.166Z,71.88
2023-05-16T22:37:35.277Z,71.93
2023-05-16T22:40:03.492Z,71.96
2023-05-16T22:42:31.759Z,72.23
2023-05-16T22:44:59.808Z,72.13
2023-05-16T22:47:29.021Z,72.18
2023-05-16T22:49:57.167Z,72.08
2023-05-16T22:52:25.621Z,71.84
2023-05-16T22:54:53.707Z,71.74
2023-05-16T22:57:21.689Z,71.64
2023-05-16T22:59:49.713Z,71.70
2023-05-16T23:02:18.367Z,71.50
2023-05-16T23:04:46.368Z,71.68
2023-05-16T23:07:14.588Z,71.75
2023-05-16T23:09:42.794Z,71.61
2023-05-16T23:12:11.036Z,71.45
2023-05-16T23:14:39.009Z,71.62
2023-05-16T23:17:07.193Z,71.50
2023-05-16T23:19:35.641Z,71.40
2023-05-16T23:22:04.047Z,71.61
2023-05-16T23:24:32.557Z,71.63
2023-05-16T23:27:00.921Z,71.98
2023-05-16T23:29:29.060Z,71.91
2023-05-16T23:31:57.144Z,72.38
2023-05-16T23:34:25.607Z,72.50
2023-05-16T23:36:53.800Z,72.40
2023-05-16T23:39:22.179Z,72.58
2023-05-16T23:41:50.360Z,72.83
2023-05-16T23:44:18.933Z,72.82
2023-05-16T23:46:47.010Z,73.31
2023-05-16T23:49:15.183Z,73.51
2023-05-16T23:51:56.816Z,73.87
2023-05-16T23:54:26.744Z,73.90
2023-05-16T23:56:54.916Z,74.13
2023-05-16T23:59:23.158Z,74.33
